sensor_id;sensor_type;location;lat;lon;timestamp;P1;durP1;ratioP1;P2;durP2;ratioP2
64282;SDS011;50497;50.720;-2.084;2023-03-21T00:01:16;12.75;;;3.35;;
64282;SDS011;50497;50.720;-2.084;2023-03-21T00:03:42;12.90;;;3.47;;
64282;SDS011;50497;50.720;-2.084;2023-03-21T00:06:09;18.25;;;3.63;;
64282;SDS011;50497;50.720;-2.084;2023-03-21T00:08:36;12.35;;;3.42;;
64282;SDS011;50497;50.720;-2.084;2023-03-21T00:11:03;10.13;;;3.92;;
64282;SDS011;50497;50.720;-2.084;2023-03-21T00:13:31;14.82;;;3.72;;
64282;SDS011;50497;50.720;-2.084;2023-03-21T00:16:02;12.55;;;3.58;;
64282;SDS011;50497;50.720;-2.084;2023-03-21T00:18:29;12.05;;;3.58;;
64282;SDS011;50497;50.720;-2.084;2023-03-21T00:20:59;12.57;;;3.20;;
64282;SDS011;50497;50.720;-2.084;2023-03-21T00:23:27;10.63;;;3.35;;
64282;SDS011;50497;50.720;-2.084;2023-03-21T00:25:54;14.35;;;3.60;;
64282;SDS011;50497;50.720;-2.084;2023-03-21T00:28:20;8.98;;;3.35;;
64282;SDS011;50497;50.720;-2.084;2023-03-21T00:30:46;13.30;;;3.55;;
64282;SDS011;50497;50.720;-2.084;2023-03-21T00:33:11;9.13;;;2.83;;
64282;SDS011;50497;50.720;-2.084;2023-03-21T00:35:38;10.95;;;3.00;;
64282;SDS011;50497;50.720;-2.084;2023-03-21T00:38:06;10.57;;;2.72;;
64282;SDS011;50497;50.720;-2.084;2023-03-21T00:40:31;10.65;;;2.75;;
64282;SDS011;50497;50.720;-2.084;2023-03-21T00:42:56;11.40;;;2.60;;
64282;SDS011;50497;50.720;-2.084;2023-03-21T00:45:22;11.65;;;2.65;;
64282;SDS011;50497;50.720;-2.084;2023-03-21T00:47:47;13.52;;;2.65;;
64282;SDS011;50497;50.720;-2.084;2023-03-21T00:50:13;11.73;;;2.70;;
64282;SDS011;50497;50.720;-2.084;2023-03-21T00:52:38;9.27;;;2.55;;
64282;SDS011;50497;50.720;-2.084;2023-03-21T00:55:04;11.45;;;2.60;;
64282;SDS011;50497;50.720;-2.084;2023-03-21T00:57:31;12.45;;;2.53;;
64282;SDS011;50497;50.720;-2.084;2023-03-21T00:59:56;10.38;;;3.10;;
64282;SDS011;50497;50.720;-2.084;2023-03-21T01:02:24;9.48;;;2.55;;
64282;SDS011;50497;50.720;-2.084;2023-03-21T01:04:51;11.38;;;2.35;;
64282;SDS011;50497;50.720;-2.084;2023-03-21T01:07:18;11.35;;;2.40;;
64282;SDS011;50497;50.720;-2.084;2023-03-21T01:09:43;8.95;;;2.28;;
64282;SDS011;50497;50.720;-2.084;2023-03-21T01:12:09;11.77;;;2.50;;
64282;SDS011;50497;50.720;-2.084;2023-03-21T01:14:34;11.10;;;2.40;;
64282;SDS011;50497;50.720;-2.084;2023-03-21T01:17:00;12.30;;;2.45;;
64282;SDS011;50497;50.720;-2.084;2023-03-21T01:19:26;9.85;;;2.03;;
64282;SDS011;50497;50.720;-2.084;2023-03-21T01:21:52;11.02;;;2.20;;
64282;SDS011;50497;50.720;-2.084;2023-03-21T01:24:18;11.48;;;3.42;;
64282;SDS011;50497;50.720;-2.084;2023-03-21T01:26:44;14.40;;;3.13;;
64282;SDS011;50497;50.720;-2.084;2023-03-21T01:29:09;9.00;;;2.42;;
64282;SDS011;50497;50.720;-2.084;2023-03-21T01:31:35;11.48;;;2.50;;
64282;SDS011;50497;50.720;-2.084;2023-03-21T01:34:00;13.10;;;2.63;;
64282;SDS011;50497;50.720;-2.084;2023-03-21T01:36:26;12.15;;;2.40;;
64282;SDS011;50497;50.720;-2.084;2023-03-21T01:38:52;13.27;;;2.58;;
64282;SDS011;50497;50.720;-2.084;2023-03-21T01:43:53;12.32;;;2.80;;
64282;SDS011;50497;50.720;-2.084;2023-03-21T01:46:20;13.95;;;2.90;;
64282;SDS011;50497;50.720;-2.084;2023-03-21T01:49:15;11.45;;;3.00;;
64282;SDS011;50497;50.720;-2.084;2023-03-21T01:51:42;14.68;;;3.47;;
64282;SDS011;50497;50.720;-2.084;2023-03-21T01:54:14;16.85;;;3.40;;
64282;SDS011;50497;50.720;-2.084;2023-03-21T01:56:47;14.05;;;2.83;;
64282;SDS011;50497;50.720;-2.084;2023-03-21T01:59:16;20.85;;;3.20;;
64282;SDS011;50497;50.720;-2.084;2023-03-21T02:01:48;10.20;;;3.03;;
64282;SDS011;50497;50.720;-2.084;2023-03-21T02:04:16;14.20;;;2.97;;
64282;SDS011;50497;50.720;-2.084;2023-03-21T02:09:29;14.95;;;3.05;;
64282;SDS011;50497;50.720;-2.084;2023-03-21T02:11:57;14.80;;;3.40;;
64282;SDS011;50497;50.720;-2.084;2023-03-21T02:14:24;16.17;;;3.40;;
64282;SDS011;50497;50.720;-2.084;2023-03-21T02:39:28;17.60;;;3.53;;
64282;SDS011;50497;50.720;-2.084;2023-03-21T02:45:14;18.98;;;3.78;;
64282;SDS011;50497;50.720;-2.084;2023-03-21T02:47:52;17.60;;;3.80;;
64282;SDS011;50497;50.720;-2.084;2023-03-21T02:50:28;20.35;;;3.53;;
64282;SDS011;50497;50.720;-2.084;2023-03-21T02:53:01;18.63;;;4.22;;
64282;SDS011;50497;50.720;-2.084;2023-03-21T02:55:31;17.70;;;3.70;;
64282;SDS011;50497;50.720;-2.084;2023-03-21T02:57:58;15.90;;;3.75;;
64282;SDS011;50497;50.720;-2.084;2023-03-21T03:00:26;17.05;;;4.00;;
64282;SDS011;50497;50.720;-2.084;2023-03-21T03:02:54;17.05;;;3.72;;
64282;SDS011;50497;50.720;-2.084;2023-03-21T03:05:21;17.80;;;3.53;;
64282;SDS011;50497;50.720;-2.084;2023-03-21T03:07:57;26.95;;;4.20;;
64282;SDS011;50497;50.720;-2.084;2023-03-21T03:18:49;18.75;;;3.50;;
64282;SDS011;50497;50.720;-2.084;2023-03-21T03:21:29;16.05;;;3.72;;
64282;SDS011;50497;50.720;-2.084;2023-03-21T03:27:12;19.17;;;4.00;;
64282;SDS011;50497;50.720;-2.084;2023-03-21T03:29:44;17.60;;;3.95;;
64282;SDS011;50497;50.720;-2.084;2023-03-21T03:32:17;18.60;;;3.92;;
64282;SDS011;50497;50.720;-2.084;2023-03-21T03:34:49;19.55;;;4.47;;
64282;SDS011;50497;50.720;-2.084;2023-03-21T03:37:20;21.15;;;4.63;;
64282;SDS011;50497;50.720;-2.084;2023-03-21T03:40:07;19.67;;;4.13;;
64282;SDS011;50497;50.720;-2.084;2023-03-21T03:42:51;19.45;;;4.43;;
64282;SDS011;50497;50.720;-2.084;2023-03-21T03:45:18;17.40;;;4.07;;
64282;SDS011;50497;50.720;-2.084;2023-03-21T03:47:52;17.45;;;4.55;;
64282;SDS011;50497;50.720;-2.084;2023-03-21T03:53:07;18.08;;;4.20;;
64282;SDS011;50497;50.720;-2.084;2023-03-21T03:55:44;17.42;;;4.28;;
64282;SDS011;50497;50.720;-2.084;2023-03-21T03:58:11;18.42;;;4.20;;
64282;SDS011;50497;50.720;-2.084;2023-03-21T04:00:37;20.42;;;4.22;;
64282;SDS011;50497;50.720;-2.084;2023-03-21T04:03:03;14.43;;;3.67;;
64282;SDS011;50497;50.720;-2.084;2023-03-21T04:05:31;16.80;;;3.55;;
64282;SDS011;50497;50.720;-2.084;2023-03-21T04:07:57;14.50;;;3.20;;
64282;SDS011;50497;50.720;-2.084;2023-03-21T04:10:22;14.38;;;3.38;;
64282;SDS011;50497;50.720;-2.084;2023-03-21T04:12:48;11.25;;;3.25;;
64282;SDS011;50497;50.720;-2.084;2023-03-21T04:15:14;13.82;;;3.05;;
64282;SDS011;50497;50.720;-2.084;2023-03-21T04:17:40;12.13;;;3.15;;
64282;SDS011;50497;50.720;-2.084;2023-03-21T04:20:06;12.80;;;3.42;;
64282;SDS011;50497;50.720;-2.084;2023-03-21T04:22:34;14.23;;;3.22;;
64282;SDS011;50497;50.720;-2.084;2023-03-21T04:24:59;11.43;;;3.30;;
64282;SDS011;50497;50.720;-2.084;2023-03-21T04:27:29;12.57;;;2.78;;
64282;SDS011;50497;50.720;-2.084;2023-03-21T04:29:56;11.68;;;3.45;;
64282;SDS011;50497;50.720;-2.084;2023-03-21T04:32:22;11.32;;;3.10;;
64282;SDS011;50497;50.720;-2.084;2023-03-21T04:34:50;14.73;;;4.32;;
64282;SDS011;50497;50.720;-2.084;2023-03-21T04:37:19;16.13;;;4.15;;
64282;SDS011;50497;50.720;-2.084;2023-03-21T04:39:47;17.98;;;4.10;;
64282;SDS011;50497;50.720;-2.084;2023-03-21T04:42:14;20.90;;;4.38;;
64282;SDS011;50497;50.720;-2.084;2023-03-21T04:44:42;21.98;;;4.35;;
64282;SDS011;50497;50.720;-2.084;2023-03-21T04:47:08;20.77;;;4.38;;
64282;SDS011;50497;50.720;-2.084;2023-03-21T04:49:35;18.00;;;4.70;;
64282;SDS011;50497;50.720;-2.084;2023-03-21T04:52:01;16.08;;;4.13;;
64282;SDS011;50497;50.720;-2.084;2023-03-21T04:54:26;16.45;;;4.03;;
64282;SDS011;50497;50.720;-2.084;2023-03-21T04:56:52;12.55;;;3.65;;
64282;SDS011;50497;50.720;-2.084;2023-03-21T04:59:17;20.85;;;4.43;;
64282;SDS011;50497;50.720;-2.084;2023-03-21T05:01:44;14.02;;;4.20;;
64282;SDS011;50497;50.720;-2.084;2023-03-21T05:04:10;17.75;;;4.68;;
64282;SDS011;50497;50.720;-2.084;2023-03-21T05:06:37;18.33;;;5.13;;
64282;SDS011;50497;50.720;-2.084;2023-03-21T05:09:02;19.35;;;4.90;;
64282;SDS011;50497;50.720;-2.084;2023-03-21T05:11:35;23.30;;;6.15;;
64282;SDS011;50497;50.720;-2.084;2023-03-21T05:14:02;19.13;;;5.32;;
64282;SDS011;50497;50.720;-2.084;2023-03-21T05:16:29;21.70;;;5.60;;
64282;SDS011;50497;50.720;-2.084;2023-03-21T05:18:58;20.25;;;5.22;;
64282;SDS011;50497;50.720;-2.084;2023-03-21T05:23:53;23.40;;;5.10;;
64282;SDS011;50497;50.720;-2.084;2023-03-21T05:26:20;29.15;;;5.75;;
64282;SDS011;50497;50.720;-2.084;2023-03-21T05:28:47;22.80;;;5.05;;
64282;SDS011;50497;50.720;-2.084;2023-03-21T05:31:14;21.75;;;4.95;;
64282;SDS011;50497;50.720;-2.084;2023-03-21T05:33:43;26.33;;;5.57;;
64282;SDS011;50497;50.720;-2.084;2023-03-21T05:36:09;23.80;;;4.75;;
64282;SDS011;50497;50.720;-2.084;2023-03-21T05:38:35;22.60;;;5.32;;
64282;SDS011;50497;50.720;-2.084;2023-03-21T05:41:01;27.23;;;4.68;;
64282;SDS011;50497;50.720;-2.084;2023-03-21T05:43:27;18.40;;;5.07;;
64282;SDS011;50497;50.720;-2.084;2023-03-21T05:45:52;30.02;;;5.55;;
64282;SDS011;50497;50.720;-2.084;2023-03-21T05:48:18;27.73;;;5.03;;
64282;SDS011;50497;50.720;-2.084;2023-03-21T05:50:44;18.98;;;4.60;;
64282;SDS011;50497;50.720;-2.084;2023-03-21T05:53:10;23.27;;;5.20;;
64282;SDS011;50497;50.720;-2.084;2023-03-21T05:58:01;21.93;;;5.07;;
64282;SDS011;50497;50.720;-2.084;2023-03-21T06:00:27;21.17;;;4.22;;
64282;SDS011;50497;50.720;-2.084;2023-03-21T06:02:53;23.00;;;4.70;;
64282;SDS011;50497;50.720;-2.084;2023-03-21T06:05:18;28.65;;;6.13;;
64282;SDS011;50497;50.720;-2.084;2023-03-21T06:07:44;26.15;;;5.25;;
64282;SDS011;50497;50.720;-2.084;2023-03-21T06:10:10;17.27;;;4.10;;
64282;SDS011;50497;50.720;-2.084;2023-03-21T06:12:36;18.13;;;4.10;;
64282;SDS011;50497;50.720;-2.084;2023-03-21T06:15:02;19.50;;;4.30;;
64282;SDS011;50497;50.720;-2.084;2023-03-21T06:17:29;20.00;;;4.05;;
64282;SDS011;50497;50.720;-2.084;2023-03-21T06:19:55;17.75;;;3.78;;
64282;SDS011;50497;50.720;-2.084;2023-03-21T06:22:21;19.25;;;3.70;;
64282;SDS011;50497;50.720;-2.084;2023-03-21T06:24:46;18.48;;;4.47;;
64282;SDS011;50497;50.720;-2.084;2023-03-21T06:27:12;18.00;;;3.78;;
64282;SDS011;50497;50.720;-2.084;2023-03-21T06:29:38;22.83;;;4.57;;
64282;SDS011;50497;50.720;-2.084;2023-03-21T06:32:03;17.95;;;3.83;;
64282;SDS011;50497;50.720;-2.084;2023-03-21T06:34:31;17.73;;;3.97;;
64282;SDS011;50497;50.720;-2.084;2023-03-21T06:36:57;16.10;;;3.58;;
64282;SDS011;50497;50.720;-2.084;2023-03-21T06:39:22;15.27;;;3.10;;
64282;SDS011;50497;50.720;-2.084;2023-03-21T06:41:48;11.90;;;2.80;;
64282;SDS011;50497;50.720;-2.084;2023-03-21T06:44:13;19.38;;;3.80;;
64282;SDS011;50497;50.720;-2.084;2023-03-21T06:46:39;20.10;;;3.70;;
64282;SDS011;50497;50.720;-2.084;2023-03-21T06:49:04;20.33;;;3.90;;
64282;SDS011;50497;50.720;-2.084;2023-03-21T06:51:30;22.80;;;4.47;;
64282;SDS011;50497;50.720;-2.084;2023-03-21T06:53:55;23.83;;;4.53;;
64282;SDS011;50497;50.720;-2.084;2023-03-21T06:56:20;18.45;;;3.88;;
64282;SDS011;50497;50.720;-2.084;2023-03-21T06:58:46;16.70;;;2.97;;
64282;SDS011;50497;50.720;-2.084;2023-03-21T07:01:11;17.98;;;3.70;;
64282;SDS011;50497;50.720;-2.084;2023-03-21T07:03:38;19.83;;;3.92;;
64282;SDS011;50497;50.720;-2.084;2023-03-21T07:06:05;25.60;;;4.78;;
64282;SDS011;50497;50.720;-2.084;2023-03-21T07:08:33;26.90;;;4.78;;
64282;SDS011;50497;50.720;-2.084;2023-03-21T07:10:59;27.48;;;5.47;;
64282;SDS011;50497;50.720;-2.084;2023-03-21T07:13:24;15.68;;;3.47;;
64282;SDS011;50497;50.720;-2.084;2023-03-21T07:15:51;23.17;;;4.15;;
64282;SDS011;50497;50.720;-2.084;2023-03-21T07:18:18;20.83;;;4.57;;
64282;SDS011;50497;50.720;-2.084;2023-03-21T07:20:48;21.60;;;4.30;;
64282;SDS011;50497;50.720;-2.084;2023-03-21T07:23:15;19.25;;;3.97;;
64282;SDS011;50497;50.720;-2.084;2023-03-21T07:25:42;14.85;;;2.92;;
64282;SDS011;50497;50.720;-2.084;2023-03-21T07:28:08;18.42;;;3.75;;
64282;SDS011;50497;50.720;-2.084;2023-03-21T07:30:34;21.50;;;3.50;;
64282;SDS011;50497;50.720;-2.084;2023-03-21T07:33:01;22.50;;;4.40;;
64282;SDS011;50497;50.720;-2.084;2023-03-21T07:35:28;24.15;;;4.28;;
64282;SDS011;50497;50.720;-2.084;2023-03-21T07:37:56;22.77;;;4.68;;
64282;SDS011;50497;50.720;-2.084;2023-03-21T07:40:25;19.45;;;4.35;;
64282;SDS011;50497;50.720;-2.084;2023-03-21T07:42:50;20.50;;;4.00;;
64282;SDS011;50497;50.720;-2.084;2023-03-21T07:45:16;18.08;;;3.60;;
64282;SDS011;50497;50.720;-2.084;2023-03-21T07:47:46;21.70;;;3.97;;
64282;SDS011;50497;50.720;-2.084;2023-03-21T07:50:12;17.38;;;3.00;;
64282;SDS011;50497;50.720;-2.084;2023-03-21T07:52:38;14.05;;;3.42;;
64282;SDS011;50497;50.720;-2.084;2023-03-21T07:55:06;19.83;;;3.25;;
64282;SDS011;50497;50.720;-2.084;2023-03-21T07:57:32;16.92;;;3.20;;
64282;SDS011;50497;50.720;-2.084;2023-03-21T07:59:57;15.65;;;3.33;;
64282;SDS011;50497;50.720;-2.084;2023-03-21T08:04:49;15.43;;;2.97;;
64282;SDS011;50497;50.720;-2.084;2023-03-21T08:07:15;15.63;;;3.22;;
64282;SDS011;50497;50.720;-2.084;2023-03-21T08:09:41;13.02;;;2.42;;
64282;SDS011;50497;50.720;-2.084;2023-03-21T08:12:09;16.98;;;3.03;;
64282;SDS011;50497;50.720;-2.084;2023-03-21T08:14:35;17.73;;;3.50;;
64282;SDS011;50497;50.720;-2.084;2023-03-21T08:17:01;18.77;;;3.17;;
64282;SDS011;50497;50.720;-2.084;2023-03-21T08:19:28;18.23;;;2.80;;
64282;SDS011;50497;50.720;-2.084;2023-03-21T08:21:53;14.02;;;2.85;;
64282;SDS011;50497;50.720;-2.084;2023-03-21T08:24:19;22.42;;;3.42;;
64282;SDS011;50497;50.720;-2.084;2023-03-21T08:26:44;16.13;;;2.65;;
64282;SDS011;50497;50.720;-2.084;2023-03-21T08:29:13;16.27;;;3.08;;
64282;SDS011;50497;50.720;-2.084;2023-03-21T08:31:39;9.98;;;2.15;;
64282;SDS011;50497;50.720;-2.084;2023-03-21T08:36:31;17.83;;;2.95;;
64282;SDS011;50497;50.720;-2.084;2023-03-21T08:39:01;15.55;;;2.60;;
64282;SDS011;50497;50.720;-2.084;2023-03-21T08:41:33;18.35;;;2.42;;
64282;SDS011;50497;50.720;-2.084;2023-03-21T08:44:01;13.38;;;2.50;;
64282;SDS011;50497;50.720;-2.084;2023-03-21T08:48:53;13.63;;;2.63;;
64282;SDS011;50497;50.720;-2.084;2023-03-21T08:51:19;16.48;;;2.60;;
64282;SDS011;50497;50.720;-2.084;2023-03-21T08:53:44;18.02;;;2.90;;
64282;SDS011;50497;50.720;-2.084;2023-03-21T08:56:10;16.98;;;3.00;;
64282;SDS011;50497;50.720;-2.084;2023-03-21T08:58:36;17.33;;;2.70;;
64282;SDS011;50497;50.720;-2.084;2023-03-21T09:01:03;14.95;;;2.28;;
64282;SDS011;50497;50.720;-2.084;2023-03-21T09:03:29;14.75;;;2.20;;
64282;SDS011;50497;50.720;-2.084;2023-03-21T09:05:54;10.55;;;2.00;;
64282;SDS011;50497;50.720;-2.084;2023-03-21T09:08:20;12.98;;;2.13;;
64282;SDS011;50497;50.720;-2.084;2023-03-21T09:10:54;16.33;;;2.33;;
64282;SDS011;50497;50.720;-2.084;2023-03-21T09:13:21;14.00;;;2.13;;
64282;SDS011;50497;50.720;-2.084;2023-03-21T09:15:47;14.95;;;2.60;;
64282;SDS011;50497;50.720;-2.084;2023-03-21T09:18:13;21.30;;;3.08;;
64282;SDS011;50497;50.720;-2.084;2023-03-21T09:20:44;17.55;;;2.60;;
64282;SDS011;50497;50.720;-2.084;2023-03-21T09:23:14;15.05;;;2.70;;
64282;SDS011;50497;50.720;-2.084;2023-03-21T09:25:40;19.65;;;3.20;;
64282;SDS011;50497;50.720;-2.084;2023-03-21T09:28:08;13.57;;;2.20;;
64282;SDS011;50497;50.720;-2.084;2023-03-21T09:30:34;17.40;;;2.50;;
64282;SDS011;50497;50.720;-2.084;2023-03-21T09:33:02;16.48;;;3.03;;
64282;SDS011;50497;50.720;-2.084;2023-03-21T09:35:32;19.23;;;2.55;;
64282;SDS011;50497;50.720;-2.084;2023-03-21T09:37:58;11.20;;;3.28;;
64282;SDS011;50497;50.720;-2.084;2023-03-21T09:40:46;11.93;;;2.55;;
64282;SDS011;50497;50.720;-2.084;2023-03-21T09:46:24;13.77;;;2.10;;
64282;SDS011;50497;50.720;-2.084;2023-03-21T09:49:09;10.32;;;2.28;;
64282;SDS011;50497;50.720;-2.084;2023-03-21T09:51:42;19.80;;;3.53;;
64282;SDS011;50497;50.720;-2.084;2023-03-21T09:54:21;13.02;;;2.92;;
64282;SDS011;50497;50.720;-2.084;2023-03-21T09:56:49;15.00;;;2.60;;
64282;SDS011;50497;50.720;-2.084;2023-03-21T09:59:29;10.73;;;2.33;;
64282;SDS011;50497;50.720;-2.084;2023-03-21T10:02:03;11.07;;;2.10;;
64282;SDS011;50497;50.720;-2.084;2023-03-21T10:05:01;13.60;;;2.78;;
64282;SDS011;50497;50.720;-2.084;2023-03-21T10:07:38;11.85;;;2.63;;
64282;SDS011;50497;50.720;-2.084;2023-03-21T10:10:10;13.43;;;2.25;;
64282;SDS011;50497;50.720;-2.084;2023-03-21T10:12:41;11.10;;;2.00;;
64282;SDS011;50497;50.720;-2.084;2023-03-21T10:15:09;14.25;;;2.20;;
64282;SDS011;50497;50.720;-2.084;2023-03-21T10:17:40;12.15;;;1.98;;
64282;SDS011;50497;50.720;-2.084;2023-03-21T10:22:35;8.07;;;1.55;;
64282;SDS011;50497;50.720;-2.084;2023-03-21T10:25:01;9.35;;;1.92;;
64282;SDS011;50497;50.720;-2.084;2023-03-21T10:27:29;10.02;;;1.65;;
64282;SDS011;50497;50.720;-2.084;2023-03-21T10:32:30;6.93;;;1.60;;
64282;SDS011;50497;50.720;-2.084;2023-03-21T10:34:59;8.73;;;1.83;;
64282;SDS011;50497;50.720;-2.084;2023-03-21T10:37:28;14.73;;;1.83;;
64282;SDS011;50497;50.720;-2.084;2023-03-21T10:39:54;12.93;;;2.45;;
64282;SDS011;50497;50.720;-2.084;2023-03-21T10:42:28;11.13;;;1.67;;
64282;SDS011;50497;50.720;-2.084;2023-03-21T10:44:59;12.88;;;1.98;;
64282;SDS011;50497;50.720;-2.084;2023-03-21T10:49:52;9.98;;;1.98;;
64282;SDS011;50497;50.720;-2.084;2023-03-21T10:52:19;6.72;;;1.42;;
64282;SDS011;50497;50.720;-2.084;2023-03-21T10:54:47;9.75;;;1.85;;
64282;SDS011;50497;50.720;-2.084;2023-03-21T10:57:19;9.18;;;2.15;;
64282;SDS011;50497;50.720;-2.084;2023-03-21T10:59:56;11.52;;;2.08;;
64282;SDS011;50497;50.720;-2.084;2023-03-21T11:02:45;7.75;;;1.50;;
64282;SDS011;50497;50.720;-2.084;2023-03-21T11:07:55;8.90;;;1.70;;
64282;SDS011;50497;50.720;-2.084;2023-03-21T11:10:28;9.68;;;1.70;;
64282;SDS011;50497;50.720;-2.084;2023-03-21T11:13:01;8.60;;;2.20;;
64282;SDS011;50497;50.720;-2.084;2023-03-21T11:15:32;8.18;;;1.70;;
64282;SDS011;50497;50.720;-2.084;2023-03-21T11:18:14;11.93;;;2.45;;
64282;SDS011;50497;50.720;-2.084;2023-03-21T11:20:47;11.45;;;1.95;;
64282;SDS011;50497;50.720;-2.084;2023-03-21T11:23:15;11.07;;;1.88;;
64282;SDS011;50497;50.720;-2.084;2023-03-21T11:25:41;12.77;;;2.33;;
64282;SDS011;50497;50.720;-2.084;2023-03-21T11:28:13;9.40;;;2.05;;
64282;SDS011;50497;50.720;-2.084;2023-03-21T11:30:59;11.70;;;1.83;;
64282;SDS011;50497;50.720;-2.084;2023-03-21T11:33:30;10.02;;;1.27;;
64282;SDS011;50497;50.720;-2.084;2023-03-21T11:36:45;10.23;;;1.40;;
64282;SDS011;50497;50.720;-2.084;2023-03-21T11:38:55;9.15;;;2.30;;
64282;SDS011;50497;50.720;-2.084;2023-03-21T11:41:27;10.27;;;1.98;;
64282;SDS011;50497;50.720;-2.084;2023-03-21T11:43:57;8.85;;;1.70;;
64282;SDS011;50497;50.720;-2.084;2023-03-21T11:46:25;10.32;;;1.92;;
64282;SDS011;50497;50.720;-2.084;2023-03-21T11:48:52;12.20;;;1.95;;
64282;SDS011;50497;50.720;-2.084;2023-03-21T11:56:43;8.45;;;1.60;;
64282;SDS011;50497;50.720;-2.084;2023-03-21T12:02:11;9.30;;;1.60;;
64282;SDS011;50497;50.720;-2.084;2023-03-21T12:04:46;11.95;;;1.70;;
64282;SDS011;50497;50.720;-2.084;2023-03-21T12:13:18;10.13;;;1.75;;
64282;SDS011;50497;50.720;-2.084;2023-03-21T12:21:33;11.90;;;2.55;;
64282;SDS011;50497;50.720;-2.084;2023-03-21T12:24:18;11.73;;;1.95;;
64282;SDS011;50497;50.720;-2.084;2023-03-21T12:29:38;16.45;;;2.60;;
64282;SDS011;50497;50.720;-2.084;2023-03-21T12:40:09;14.85;;;2.38;;
64282;SDS011;50497;50.720;-2.084;2023-03-21T12:45:17;11.25;;;2.33;;
64282;SDS011;50497;50.720;-2.084;2023-03-21T12:47:52;11.95;;;2.25;;
64282;SDS011;50497;50.720;-2.084;2023-03-21T12:50:28;10.25;;;2.17;;
64282;SDS011;50497;50.720;-2.084;2023-03-21T12:53:17;12.95;;;2.90;;
64282;SDS011;50497;50.720;-2.084;2023-03-21T12:55:54;13.70;;;2.42;;
64282;SDS011;50497;50.720;-2.084;2023-03-21T12:58:25;9.40;;;1.83;;
64282;SDS011;50497;50.720;-2.084;2023-03-21T13:00:54;11.45;;;2.38;;
64282;SDS011;50497;50.720;-2.084;2023-03-21T13:03:23;13.40;;;2.20;;
64282;SDS011;50497;50.720;-2.084;2023-03-21T13:08:50;12.65;;;2.13;;
64282;SDS011;50497;50.720;-2.084;2023-03-21T13:11:24;11.00;;;1.85;;
64282;SDS011;50497;50.720;-2.084;2023-03-21T13:16:52;17.15;;;2.30;;
64282;SDS011;50497;50.720;-2.084;2023-03-21T13:19:36;13.57;;;2.28;;
64282;SDS011;50497;50.720;-2.084;2023-03-21T13:22:25;14.60;;;2.85;;
64282;SDS011;50497;50.720;-2.084;2023-03-21T13:25:05;17.45;;;2.58;;
64282;SDS011;50497;50.720;-2.084;2023-03-21T13:27:42;13.55;;;2.42;;
64282;SDS011;50497;50.720;-2.084;2023-03-21T13:30:21;11.45;;;2.17;;
64282;SDS011;50497;50.720;-2.084;2023-03-21T13:32:53;14.38;;;2.83;;
64282;SDS011;50497;50.720;-2.084;2023-03-21T13:35:32;15.05;;;2.50;;
64282;SDS011;50497;50.720;-2.084;2023-03-21T13:38:13;13.02;;;2.53;;
64282;SDS011;50497;50.720;-2.084;2023-03-21T13:41:04;11.65;;;1.98;;
64282;SDS011;50497;50.720;-2.084;2023-03-21T13:43:40;9.18;;;2.03;;
64282;SDS011;50497;50.720;-2.084;2023-03-21T13:46:10;11.18;;;2.00;;
64282;SDS011;50497;50.720;-2.084;2023-03-21T13:51:19;13.10;;;2.20;;
64282;SDS011;50497;50.720;-2.084;2023-03-21T13:54:20;14.35;;;2.17;;
64282;SDS011;50497;50.720;-2.084;2023-03-21T13:56:47;12.85;;;2.50;;
64282;SDS011;50497;50.720;-2.084;2023-03-21T14:05:00;13.48;;;2.30;;
64282;SDS011;50497;50.720;-2.084;2023-03-21T14:07:28;13.02;;;2.40;;
64282;SDS011;50497;50.720;-2.084;2023-03-21T14:10:01;17.65;;;2.55;;
64282;SDS011;50497;50.720;-2.084;2023-03-21T14:12:35;12.90;;;2.13;;
64282;SDS011;50497;50.720;-2.084;2023-03-21T14:20:50;12.38;;;2.20;;
64282;SDS011;50497;50.720;-2.084;2023-03-21T14:23:20;12.60;;;2.00;;
64282;SDS011;50497;50.720;-2.084;2023-03-21T14:25:47;12.88;;;2.08;;
64282;SDS011;50497;50.720;-2.084;2023-03-21T14:31:01;18.52;;;2.80;;
64282;SDS011;50497;50.720;-2.084;2023-03-21T14:33:41;9.02;;;1.85;;
64282;SDS011;50497;50.720;-2.084;2023-03-21T14:36:17;12.00;;;2.42;;
64282;SDS011;50497;50.720;-2.084;2023-03-21T14:38:52;12.55;;;2.20;;
64282;SDS011;50497;50.720;-2.084;2023-03-21T14:41:25;11.95;;;1.92;;
64282;SDS011;50497;50.720;-2.084;2023-03-21T14:47:15;14.15;;;2.45;;
64282;SDS011;50497;50.720;-2.084;2023-03-21T14:49:45;12.70;;;2.63;;
64282;SDS011;50497;50.720;-2.084;2023-03-21T14:52:14;14.65;;;2.40;;
64282;SDS011;50497;50.720;-2.084;2023-03-21T14:54:44;14.02;;;2.47;;
64282;SDS011;50497;50.720;-2.084;2023-03-21T14:57:23;18.00;;;2.95;;
64282;SDS011;50497;50.720;-2.084;2023-03-21T14:59:56;15.23;;;2.30;;
64282;SDS011;50497;50.720;-2.084;2023-03-21T15:02:38;15.13;;;2.63;;
64282;SDS011;50497;50.720;-2.084;2023-03-21T15:05:22;19.13;;;2.80;;
64282;SDS011;50497;50.720;-2.084;2023-03-21T15:07:56;13.10;;;2.00;;
64282;SDS011;50497;50.720;-2.084;2023-03-21T15:10:28;18.60;;;3.03;;
64282;SDS011;50497;50.720;-2.084;2023-03-21T15:12:59;13.38;;;2.55;;
64282;SDS011;50497;50.720;-2.084;2023-03-21T15:15:28;14.73;;;2.08;;
64282;SDS011;50497;50.720;-2.084;2023-03-21T15:17:57;15.75;;;2.78;;
64282;SDS011;50497;50.720;-2.084;2023-03-21T15:20:28;12.40;;;2.03;;
64282;SDS011;50497;50.720;-2.084;2023-03-21T15:23:00;12.35;;;2.35;;
64282;SDS011;50497;50.720;-2.084;2023-03-21T15:25:34;11.10;;;2.60;;
64282;SDS011;50497;50.720;-2.084;2023-03-21T15:28:01;12.15;;;2.15;;
64282;SDS011;50497;50.720;-2.084;2023-03-21T15:30:28;17.35;;;2.35;;
64282;SDS011;50497;50.720;-2.084;2023-03-21T15:32:55;18.15;;;2.83;;
64282;SDS011;50497;50.720;-2.084;2023-03-21T15:35:26;12.52;;;2.13;;
64282;SDS011;50497;50.720;-2.084;2023-03-21T15:38:01;16.73;;;2.25;;
64282;SDS011;50497;50.720;-2.084;2023-03-21T15:40:29;15.02;;;2.53;;
64282;SDS011;50497;50.720;-2.084;2023-03-21T15:43:11;16.65;;;3.00;;
64282;SDS011;50497;50.720;-2.084;2023-03-21T15:45:49;15.10;;;2.60;;
64282;SDS011;50497;50.720;-2.084;2023-03-21T15:48:25;14.30;;;2.30;;
64282;SDS011;50497;50.720;-2.084;2023-03-21T15:50:57;16.73;;;2.20;;
64282;SDS011;50497;50.720;-2.084;2023-03-21T15:53:29;12.95;;;2.58;;
64282;SDS011;50497;50.720;-2.084;2023-03-21T15:55:57;14.07;;;2.65;;
64282;SDS011;50497;50.720;-2.084;2023-03-21T15:58:33;14.77;;;2.30;;
64282;SDS011;50497;50.720;-2.084;2023-03-21T16:01:04;15.68;;;2.85;;
64282;SDS011;50497;50.720;-2.084;2023-03-21T16:03:36;14.20;;;2.83;;
64282;SDS011;50497;50.720;-2.084;2023-03-21T16:11:57;16.92;;;2.50;;
64282;SDS011;50497;50.720;-2.084;2023-03-21T16:14:17;10.45;;;2.10;;
64282;SDS011;50497;50.720;-2.084;2023-03-21T16:16:44;14.48;;;2.28;;
64282;SDS011;50497;50.720;-2.084;2023-03-21T16:21:40;24.40;;;2.83;;
64282;SDS011;50497;50.720;-2.084;2023-03-21T16:24:06;11.68;;;2.13;;
64282;SDS011;50497;50.720;-2.084;2023-03-21T16:26:44;18.40;;;2.83;;
64282;SDS011;50497;50.720;-2.084;2023-03-21T16:29:17;19.13;;;2.58;;
64282;SDS011;50497;50.720;-2.084;2023-03-21T16:34:13;11.57;;;2.83;;
64282;SDS011;50497;50.720;-2.084;2023-03-21T16:36:43;21.60;;;3.83;;
64282;SDS011;50497;50.720;-2.084;2023-03-21T16:39:16;14.70;;;2.60;;
64282;SDS011;50497;50.720;-2.084;2023-03-21T16:41:47;14.63;;;2.50;;
64282;SDS011;50497;50.720;-2.084;2023-03-21T16:44:17;17.05;;;2.85;;
64282;SDS011;50497;50.720;-2.084;2023-03-21T16:46:44;22.55;;;2.88;;
64282;SDS011;50497;50.720;-2.084;2023-03-21T16:49:24;19.60;;;2.85;;
64282;SDS011;50497;50.720;-2.084;2023-03-21T16:51:56;19.85;;;2.80;;
64282;SDS011;50497;50.720;-2.084;2023-03-21T16:54:21;14.35;;;2.55;;
64282;SDS011;50497;50.720;-2.084;2023-03-21T16:56:50;17.48;;;2.33;;
64282;SDS011;50497;50.720;-2.084;2023-03-21T16:59:21;16.17;;;2.85;;